Cape Girardeau Regional Airport
KCGI : now visible

Airfield :











YOU CAN JOIN US ON...

 
LOGIN :

Register | Disclaimer

   EN    FR    IT 

 









Legend :    VFR   Marginal VFR   IFR   Intensive IFR   Very Intensive IFR
Visi :
Ceiling :
>= 8 km
>= 3000ft
5 to 8 km
1000 to 3000 ft
1500m to 5 km
500 to 1000 ft
800 to 1500m
200 to 500 ft
< 800m
< 200 ft
Symbols :   Thunderstorms  Fog  Heavy snow  Heavy precipitations  Wind > 20 kt







- Airport Elevation : 342 ft
- IATA code : CGI


KCGI - Cape Girardeau Regional

CURRENT METAR :
  • 210553Z AUTO 13004KT 10SM CLR 26/24 A2994 RMK AO2 SLP134 T02610239 10317 20261 403280244 50011

EXPIRED METARs :
  • 210453Z AUTO 33003KT 10SM CLR 27/24 A2995 RMK AO2 SLP138 T02670239
  • 210353Z AUTO 17004KT 10SM CLR 27/24 A2994 RMK AO2 SLP134 T02720239

TAF KCGI
Valid from the 21 at 06:00 until the 22 at 06:00 UTC


210603Z 2106/2206 VRB04KT P6SM FEW250
FM211500 23005KT P6SM SCT040
FM220000 VRB04KT P6SM VCTS SCT050CB
KZME FIR / North America



MET'MAP, your aeronautical weather chart ! - Copyright ORBIFLY December 2007 - Disclaimer

ORBIFLY MET'MAP TEAM :

Programming & Development : Alexandra Zaïnal
Concept & Development : Baudouin d'Aumeries
Co-Development & Prog : Marc-Olivier Méhu
Technical & hardware support : Manuel Goepfert

Contact : metmap@orbifly.com




SOURCES & CREDITS :

   NOAA       Earth
Advisory